Briefing drone pour Crolles

Rechercher une autre localisation

Conditions de vol :


Nous sommes le : Mardi 22 juin 2021
Il est 23:04 UTC (01:04 LT)

Lever de soleil : 03:22 UTC (05:22 LT)
Coucher de soleil : 19:54 UTC (21:54 LT)

Météo

L'essentiel des conditions de vol

VIGILANCE MÉTÉO FRANCE - Isère (38)
Vigilance Jaune : Orages
CARTE TEMSI
CARTES DES FRONTS
METAR de LFLS
LFLS 212300Z AUTO VRB03KT 9999 BKN033/// BKN060/// BKN100/// ///CB 17/15 Q1011 TEMPO VRB15G30KT 2000 TSRA

Date d'émission: 21/06/2021
Heure d'émission: 23:00 UTC
Vent: Variable 3 KT (6 km/h)
Visibilité horizontale: > 10 km
Plafond :
- Nuages morcelés à 3300ft (1006m)
- Nuages morcelés à 6000ft (1829m)
- Nuages morcelés à 10000ft (3048m)
Température: 17 °C
Point de rosée: 15 °C
Humidité: 88%
Pression (QNH): 1011 hPa

Temporairement:

Visibilité horizontale : 2000 m
Conditions : Orage de pluie
TAF de LFLS
LFLS 211917Z 2119/2209 CNL

Conditions prévues :

Heure d'émission : Bulletin éffectué le 21 à 19:00 UTC
Prévision : Valide du 21 a 19:00 UTC au 22 a 09:00 UTC
Nuages : à 0ft (0 m)
WEBCAM POUR CROLLES

Réglementation

Voler en sécurité

CARTES AERONAUTIQUE 1/500.000
CARTES VAC (LFLS)
SUP AIP




Chargement des AIP...
NOTAM (CROLLES + Terrain à proximité / FIR )




Chargement des NOTAMS...
CONTACT PREFECTURE 38


Avertissement : Les données mises à disposition sont indicatives. Oxygène Drone ne pourra être tenu responsable de dégâts causés aux biens et aux personnes.